createdAt,value
2022-11-23T00:01:28.204Z,10.50
2022-11-23T00:03:59.322Z,10.50
2022-11-23T00:06:27.249Z,10.60
2022-11-23T00:08:54.910Z,10.60
2022-11-23T00:11:24.264Z,10.60
2022-11-23T00:13:51.955Z,10.60
2022-11-23T00:16:25.240Z,10.50
2022-11-23T00:19:00.188Z,10.50
2022-11-23T00:21:29.685Z,10.40
2022-11-23T00:23:57.019Z,10.40
2022-11-23T00:26:24.512Z,10.40
2022-11-23T00:28:51.430Z,10.30
2022-11-23T00:31:20.239Z,10.40
2022-11-23T00:33:54.418Z,10.30
2022-11-23T00:36:23.045Z,10.40
2022-11-23T00:38:50.438Z,10.30
2022-11-23T00:41:20.076Z,10.20
2022-11-23T00:43:48.261Z,10.40
2022-11-23T00:46:15.570Z,10.40
2022-11-23T00:48:44.477Z,10.40
2022-11-23T00:51:14.822Z,10.50
2022-11-23T00:53:42.356Z,10.50
2022-11-23T00:56:09.761Z,10.40
2022-11-23T00:58:40.214Z,10.50
2022-11-23T01:01:13.177Z,10.40
2022-11-23T01:03:47.801Z,10.50
2022-11-23T01:06:17.420Z,10.40
2022-11-23T01:08:51.830Z,10.30
2022-11-23T01:11:20.238Z,10.40
2022-11-23T01:13:47.957Z,10.30
2022-11-23T01:16:24.149Z,10.10
2022-11-23T01:19:08.018Z,10.00
2022-11-23T01:21:36.885Z,10.10
2022-11-23T01:24:08.929Z,10.10
2022-11-23T01:26:36.220Z,10.10
2022-11-23T01:29:03.393Z,10.00
2022-11-23T01:31:31.119Z,10.00
2022-11-23T01:34:04.807Z,10.00
2022-11-23T01:36:33.749Z,9.80
2022-11-23T01:39:05.199Z,10.00
2022-11-23T01:41:40.852Z,10.00
2022-11-23T01:44:28.694Z,10.10
2022-11-23T01:47:01.934Z,10.00
2022-11-23T01:49:46.511Z,10.00
2022-11-23T01:52:18.580Z,9.90
2022-11-23T01:54:49.558Z,9.90
2022-11-23T01:57:44.409Z,9.90
2022-11-23T02:00:13.495Z,9.90
2022-11-23T02:02:50.080Z,9.90
2022-11-23T02:05:20.276Z,10.00
2022-11-23T02:07:49.653Z,10.00
2022-11-23T02:10:17.413Z,9.90
2022-11-23T02:12:44.667Z,9.80
2022-11-23T02:15:11.645Z,9.70
2022-11-23T02:17:38.556Z,9.70
2022-11-23T02:20:09.365Z,9.70
2022-11-23T02:22:59.309Z,9.70
2022-11-23T02:25:44.251Z,9.80
2022-11-23T02:28:18.920Z,9.80
2022-11-23T02:30:52.801Z,9.70
2022-11-23T02:33:20.451Z,9.70
2022-11-23T02:35:59.348Z,9.60
2022-11-23T02:38:32.948Z,9.70
2022-11-23T02:41:00.030Z,9.70
2022-11-23T02:43:28.656Z,9.70
2022-11-23T02:45:55.853Z,9.80
2022-11-23T02:48:23.263Z,9.80
2022-11-23T02:50:50.528Z,9.90
2022-11-23T02:53:18.402Z,9.80
2022-11-23T02:55:45.812Z,9.80
2022-11-23T02:58:13.400Z,9.60
2022-11-23T03:00:40.909Z,9.70
2022-11-23T03:03:08.118Z,9.60
2022-11-23T03:05:35.077Z,9.50
2022-11-23T03:08:02.287Z,9.60
2022-11-23T03:10:29.889Z,9.60
2022-11-23T03:12:57.379Z,9.60
2022-11-23T03:15:25.511Z,9.70
2022-11-23T03:17:52.805Z,9.80
2022-11-23T03:20:20.603Z,9.60
2022-11-23T03:22:47.836Z,9.70
2022-11-23T03:25:14.941Z,9.60
2022-11-23T03:27:42.187Z,9.60
2022-11-23T03:30:10.130Z,9.70
2022-11-23T03:32:37.405Z,9.80
2022-11-23T03:35:05.545Z,9.80
2022-11-23T03:37:32.642Z,9.80
2022-11-23T03:39:59.490Z,9.80
2022-11-23T03:42:27.172Z,9.80
2022-11-23T03:44:56.873Z,9.70
2022-11-23T03:47:23.710Z,9.80
2022-11-23T03:49:50.567Z,9.70
2022-11-23T03:52:17.984Z,9.70
2022-11-23T03:54:45.064Z,9.80
2022-11-23T03:57:11.981Z,9.80
2022-11-23T03:59:39.301Z,9.60
2022-11-23T04:02:08.135Z,9.70
2022-11-23T04:04:36.272Z,9.70
2022-11-23T04:07:03.552Z,9.70
2022-11-23T04:09:31.014Z,9.70
2022-11-23T04:11:58.061Z,9.60
2022-11-23T04:14:24.909Z,9.60
2022-11-23T04:16:52.501Z,9.60
2022-11-23T04:19:19.452Z,9.60
2022-11-23T04:21:46.478Z,9.60
2022-11-23T04:24:13.972Z,9.70
2022-11-23T04:26:41.025Z,9.70
2022-11-23T04:29:08.245Z,9.60
2022-11-23T04:31:35.283Z,9.70
2022-11-23T04:34:02.160Z,9.70
2022-11-23T04:36:29.217Z,9.70
2022-11-23T04:38:56.464Z,9.80
2022-11-23T04:41:24.576Z,9.70
2022-11-23T04:43:52.264Z,9.70
2022-11-23T04:46:19.641Z,9.70
2022-11-23T04:48:46.499Z,9.60
2022-11-23T04:51:14.400Z,9.70
2022-11-23T04:53:41.312Z,9.60
2022-11-23T04:56:08.384Z,9.70
2022-11-23T04:58:36.710Z,9.70
2022-11-23T05:01:04.914Z,9.70
2022-11-23T05:03:35.189Z,9.50
2022-11-23T05:06:03.749Z,9.30
2022-11-23T05:08:31.519Z,9.20
2022-11-23T05:10:58.829Z,9.20
2022-11-23T05:13:25.886Z,9.10
2022-11-23T05:15:53.415Z,9.10
2022-11-23T05:18:20.717Z,9.00
2022-11-23T05:20:48.022Z,8.80
2022-11-23T05:23:15.280Z,8.60
2022-11-23T05:25:42.309Z,8.70
2022-11-23T05:28:38.588Z,8.80
2022-11-23T05:31:03.514Z,8.80
2022-11-23T05:33:30.375Z,8.80
2022-11-23T05:35:57.893Z,8.90
2022-11-23T05:38:25.515Z,8.80
2022-11-23T05:40:53.603Z,8.80
2022-11-23T05:43:23.027Z,8.70
2022-11-23T05:45:50.700Z,8.40
2022-11-23T05:48:17.912Z,8.40
2022-11-23T05:50:45.123Z,8.40
2022-11-23T05:53:14.849Z,8.30
2022-11-23T05:55:42.008Z,8.30
2022-11-23T05:58:08.918Z,8.40
2022-11-23T06:00:35.941Z,8.30
2022-11-23T06:03:03.428Z,8.30
2022-11-23T06:05:32.868Z,8.30
2022-11-23T06:08:00.231Z,8.20
2022-11-23T06:10:27.120Z,8.10
2022-11-23T06:12:54.319Z,8.20
2022-11-23T06:15:21.466Z,8.30
2022-11-23T06:17:48.456Z,8.30
2022-11-23T06:20:15.536Z,8.20
2022-11-23T06:22:42.398Z,8.20
2022-11-23T06:25:09.948Z,8.20
2022-11-23T06:27:36.829Z,8.00
2022-11-23T06:30:04.605Z,8.10
2022-11-23T06:32:31.950Z,8.10
2022-11-23T06:35:00.990Z,8.20
2022-11-23T06:37:28.217Z,8.00
2022-11-23T06:39:55.170Z,8.00
2022-11-23T06:42:39.722Z,8.00
2022-11-23T06:45:08.865Z,7.70
2022-11-23T06:47:35.898Z,7.70
2022-11-23T06:50:02.999Z,7.70
2022-11-23T06:52:30.055Z,7.70
2022-11-23T06:54:57.072Z,7.60
2022-11-23T06:57:24.463Z,7.50
2022-11-23T06:59:51.331Z,7.60
2022-11-23T07:02:18.634Z,7.40
2022-11-23T07:04:45.521Z,7.30
2022-11-23T07:07:12.949Z,7.30
2022-11-23T07:09:39.967Z,7.40
2022-11-23T07:12:07.675Z,7.40
2022-11-23T07:14:34.648Z,7.40
2022-11-23T07:17:01.636Z,7.40
2022-11-23T07:19:29.206Z,7.30
2022-11-23T07:21:56.494Z,7.40
2022-11-23T07:24:23.383Z,7.60
2022-11-23T07:26:50.820Z,7.60
2022-11-23T07:29:17.669Z,7.50
2022-11-23T07:31:44.663Z,7.50
2022-11-23T07:34:11.528Z,7.60
2022-11-23T07:36:39.229Z,7.60
2022-11-23T07:39:06.297Z,7.60
2022-11-23T07:41:34.209Z,7.70
2022-11-23T07:44:04.076Z,7.60
2022-11-23T07:46:30.990Z,7.60
2022-11-23T07:49:02.467Z,7.70
2022-11-23T07:51:29.773Z,7.80
2022-11-23T07:53:56.898Z,7.90
2022-11-23T07:56:24.569Z,7.90
2022-11-23T07:58:51.809Z,8.00
2022-11-23T08:01:20.745Z,8.00
2022-11-23T08:03:49.216Z,8.10
2022-11-23T08:06:16.801Z,8.10
2022-11-23T08:08:43.897Z,8.10
2022-11-23T08:11:14.939Z,8.20
2022-11-23T08:13:41.901Z,8.30
2022-11-23T08:16:08.937Z,8.30
2022-11-23T08:18:36.074Z,8.40
2022-11-23T08:21:03.416Z,8.40
2022-11-23T08:23:31.023Z,8.50
2022-11-23T08:25:58.098Z,8.50
2022-11-23T08:28:25.127Z,8.50
2022-11-23T08:30:52.166Z,8.50
2022-11-23T08:33:19.278Z,8.50
2022-11-23T08:35:46.524Z,8.60
2022-11-23T08:38:13.830Z,8.60
2022-11-23T08:40:41.586Z,8.70
2022-11-23T08:43:09.525Z,8.80
2022-11-23T08:45:36.403Z,8.70
2022-11-23T08:48:04.753Z,8.80
2022-11-23T08:50:34.520Z,8.80
2022-11-23T08:53:01.545Z,8.70
2022-11-23T08:55:29.269Z,8.80
2022-11-23T08:57:59.533Z,8.90
2022-11-23T09:00:27.671Z,8.90
2022-11-23T09:02:55.258Z,8.90
2022-11-23T09:05:22.180Z,8.90
2022-11-23T09:07:49.420Z,9.00
2022-11-23T09:10:19.038Z,9.00
2022-11-23T09:12:47.885Z,9.10
2022-11-23T09:15:15.119Z,9.00
2022-11-23T09:17:42.080Z,9.20
2022-11-23T09:20:10.223Z,9.10
2022-11-23T09:22:38.003Z,9.20
2022-11-23T09:25:12.099Z,9.20
2022-11-23T09:27:40.094Z,9.20
2022-11-23T09:30:07.742Z,9.20
2022-11-23T09:32:35.155Z,9.10
2022-11-23T09:35:06.749Z,9.10
2022-11-23T09:37:33.752Z,9.00
2022-11-23T09:40:03.367Z,9.10
2022-11-23T09:43:16.394Z,9.00
2022-11-23T09:46:14.169Z,9.20
2022-11-23T09:48:57.948Z,9.40
2022-11-23T09:51:25.092Z,9.40
2022-11-23T09:54:10.166Z,9.60
2022-11-23T09:56:38.959Z,9.60
2022-11-23T09:59:36.225Z,9.70
2022-11-23T10:02:03.840Z,9.80
2022-11-23T10:04:35.527Z,9.80
2022-11-23T10:07:18.057Z,9.80
2022-11-23T10:10:13.660Z,9.80
2022-11-23T10:13:08.537Z,9.70
2022-11-23T10:15:47.931Z,9.70
2022-11-23T10:18:44.286Z,9.80
2022-11-23T10:21:11.418Z,9.90
2022-11-23T10:23:39.750Z,9.80
2022-11-23T10:26:14.616Z,10.00
2022-11-23T10:28:41.679Z,10.10
2022-11-23T10:31:13.530Z,10.10
2022-11-23T10:33:55.369Z,10.00
2022-11-23T10:36:22.191Z,10.10
2022-11-23T10:38:58.579Z,10.00
2022-11-23T10:41:26.634Z,10.10
2022-11-23T10:44:02.761Z,10.20
2022-11-23T10:46:39.582Z,10.10
2022-11-23T10:49:13.190Z,10.00
2022-11-23T10:51:40.772Z,10.00
2022-11-23T10:54:20.312Z,10.00
2022-11-23T10:56:49.289Z,10.10
2022-11-23T10:59:34.328Z,10.00
2022-11-23T11:02:11.644Z,10.10
2022-11-23T11:04:38.526Z,10.00
2022-11-23T11:07:30.986Z,10.10
2022-11-23T11:10:00.279Z,10.00
2022-11-23T11:12:30.125Z,9.90
2022-11-23T11:15:10.704Z,9.90
2022-11-23T11:17:39.739Z,9.80
2022-11-23T11:20:32.223Z,9.80
2022-11-23T11:23:15.164Z,9.80
2022-11-23T11:25:42.645Z,9.90
2022-11-23T11:28:37.430Z,9.80
2022-11-23T11:31:42.675Z,9.90
2022-11-23T11:34:35.698Z,9.90
2022-11-23T11:37:21.761Z,9.70
2022-11-23T11:39:54.582Z,9.50
2022-11-23T11:42:30.728Z,9.40
2022-11-23T11:45:01.384Z,9.40
2022-11-23T11:47:43.752Z,9.40
2022-11-23T11:50:36.900Z,9.30
2022-11-23T11:53:14.490Z,9.30
2022-11-23T11:55:47.399Z,9.40
2022-11-23T11:58:18.196Z,9.30
2022-11-23T12:00:48.088Z,9.20
2022-11-23T12:03:33.676Z,9.20
2022-11-23T12:06:11.380Z,9.30
2022-11-23T12:08:48.084Z,9.30
2022-11-23T12:11:15.569Z,9.40
2022-11-23T12:13:47.083Z,9.40
2022-11-23T12:16:29.053Z,9.40
2022-11-23T12:19:26.517Z,9.30
2022-11-23T12:22:02.696Z,9.30
2022-11-23T12:25:03.962Z,9.30
2022-11-23T12:27:45.014Z,9.30
2022-11-23T12:30:52.114Z,9.20
2022-11-23T12:33:33.152Z,9.40
2022-11-23T12:36:29.110Z,9.30
2022-11-23T12:39:03.636Z,9.30
2022-11-23T12:41:46.483Z,9.40
2022-11-23T12:44:35.164Z,9.30
2022-11-23T12:47:23.880Z,9.30
2022-11-23T12:50:15.175Z,9.40
2022-11-23T12:53:12.486Z,9.40
2022-11-23T12:56:15.410Z,9.30
2022-11-23T12:58:47.023Z,9.40
2022-11-23T13:01:29.454Z,9.40
2022-11-23T13:04:33.759Z,9.50
2022-11-23T13:07:30.630Z,9.40
2022-11-23T13:10:22.228Z,9.50
2022-11-23T13:13:12.516Z,9.40
2022-11-23T13:15:48.496Z,9.40
2022-11-23T13:18:49.442Z,9.20
2022-11-23T13:21:25.401Z,9.30
2022-11-23T13:23:53.449Z,9.30
2022-11-23T13:26:33.967Z,9.50
2022-11-23T13:29:23.173Z,9.50
2022-11-23T13:32:32.169Z,9.60
2022-11-23T13:34:59.185Z,9.60
2022-11-23T13:37:26.328Z,9.60
2022-11-23T13:39:57.579Z,9.60
2022-11-23T13:42:27.324Z,9.60
2022-11-23T13:45:39.280Z,9.60
2022-11-23T13:48:41.378Z,9.50
2022-11-23T13:51:05.135Z,9.60
2022-11-23T13:53:40.663Z,9.70
2022-11-23T13:56:40.116Z,9.80
2022-11-23T13:59:29.653Z,9.90
2022-11-23T14:02:11.701Z,10.10
2022-11-23T14:04:43.447Z,10.20
2022-11-23T14:07:29.585Z,10.30
2022-11-23T14:10:15.081Z,10.50
2022-11-23T14:13:00.559Z,10.90
2022-11-23T14:15:32.962Z,11.20
2022-11-23T14:18:36.929Z,11.50
2022-11-23T14:21:07.047Z,11.70
2022-11-23T14:23:49.182Z,11.70
2022-11-23T14:26:43.738Z,11.90
2022-11-23T14:29:16.872Z,11.90
2022-11-23T14:32:20.740Z,11.90
2022-11-23T14:35:26.310Z,11.80
2022-11-23T14:37:59.403Z,11.90
2022-11-23T14:40:33.462Z,12.00
2022-11-23T14:43:02.243Z,12.00
2022-11-23T14:45:31.824Z,11.70
2022-11-23T14:48:25.834Z,11.80
2022-11-23T14:51:10.834Z,11.70
2022-11-23T14:53:50.173Z,11.50
2022-11-23T14:56:29.726Z,11.40
2022-11-23T14:59:02.808Z,11.40
2022-11-23T15:01:30.265Z,11.40
2022-11-23T15:04:09.455Z,11.30
2022-11-23T15:06:45.502Z,11.30
2022-11-23T15:09:34.168Z,11.10
2022-11-23T15:12:08.982Z,11.20
2022-11-23T15:14:36.529Z,11.10
2022-11-23T15:17:18.097Z,11.10
2022-11-23T15:19:54.431Z,11.30
2022-11-23T15:22:21.789Z,11.40
2022-11-23T15:24:49.113Z,11.10
2022-11-23T15:27:23.125Z,11.00
2022-11-23T15:29:55.866Z,11.00
2022-11-23T15:32:33.177Z,11.00
2022-11-23T15:35:07.046Z,11.00
2022-11-23T15:37:47.422Z,10.80
2022-11-23T15:40:17.327Z,10.90
2022-11-23T15:42:49.011Z,11.00
2022-11-23T15:45:57.110Z,11.00
2022-11-23T15:48:29.988Z,10.80
2022-11-23T15:50:59.595Z,10.90
2022-11-23T15:53:30.464Z,11.00
2022-11-23T15:56:06.352Z,10.90
2022-11-23T15:58:35.344Z,10.90
2022-11-23T16:01:28.981Z,11.00
2022-11-23T16:04:04.833Z,11.00
2022-11-23T16:06:36.166Z,11.00
2022-11-23T16:09:10.098Z,10.90
2022-11-23T16:11:45.470Z,10.90
2022-11-23T16:14:19.651Z,10.70
2022-11-23T16:17:14.791Z,10.70
2022-11-23T16:19:48.618Z,10.80
2022-11-23T16:22:48.271Z,10.80
2022-11-23T16:25:33.355Z,10.80
2022-11-23T16:28:03.152Z,10.90
2022-11-23T16:30:39.986Z,10.90
2022-11-23T16:33:17.607Z,11.00
2022-11-23T16:35:45.452Z,10.90
2022-11-23T16:38:15.590Z,11.00
2022-11-23T16:40:45.548Z,11.00
2022-11-23T16:43:13.730Z,11.00
2022-11-23T16:45:46.744Z,10.80
2022-11-23T16:48:26.077Z,10.90
2022-11-23T16:50:54.770Z,11.00
2022-11-23T16:53:22.033Z,10.90
2022-11-23T16:55:53.174Z,10.90
2022-11-23T16:58:20.532Z,10.80
2022-11-23T17:00:49.809Z,10.80
2022-11-23T17:03:21.323Z,10.70
2022-11-23T17:05:48.652Z,10.80
2022-11-23T17:08:21.699Z,10.90
2022-11-23T17:10:51.168Z,10.90
2022-11-23T17:13:24.601Z,10.90
2022-11-23T17:15:52.633Z,10.70
2022-11-23T17:18:19.978Z,10.70
2022-11-23T17:20:47.277Z,10.70
2022-11-23T17:23:14.809Z,10.60
2022-11-23T17:25:42.141Z,10.70
2022-11-23T17:28:16.306Z,10.50
2022-11-23T17:30:46.064Z,10.60
2022-11-23T17:33:13.711Z,10.50
2022-11-23T17:35:43.864Z,10.60
2022-11-23T17:38:24.761Z,10.60
2022-11-23T17:40:54.520Z,10.50
2022-11-23T17:43:24.553Z,10.60
2022-11-23T17:45:52.131Z,10.60
2022-11-23T17:48:19.367Z,10.70
2022-11-23T17:50:47.685Z,10.50
2022-11-23T17:53:22.563Z,10.50
2022-11-23T17:55:51.348Z,10.60
2022-11-23T17:58:19.077Z,10.60
2022-11-23T18:00:46.927Z,10.70
2022-11-23T18:03:14.177Z,10.80
2022-11-23T18:05:41.279Z,10.90
2022-11-23T18:08:08.859Z,10.80
2022-11-23T18:10:35.646Z,10.80
2022-11-23T18:13:28.234Z,10.80
2022-11-23T18:16:04.267Z,10.70
2022-11-23T18:18:34.929Z,10.80
2022-11-23T18:21:03.625Z,10.80
2022-11-23T18:23:30.814Z,10.60
2022-11-23T18:26:03.284Z,10.60
2022-11-23T18:28:30.764Z,10.50
2022-11-23T18:30:58.107Z,10.50
2022-11-23T18:33:25.252Z,10.70
2022-11-23T18:35:52.112Z,10.50
2022-11-23T18:38:19.287Z,10.50
2022-11-23T18:40:46.247Z,10.60
2022-11-23T18:43:13.086Z,10.60
2022-11-23T18:45:40.182Z,10.60
2022-11-23T18:48:09.015Z,10.60
2022-11-23T18:50:37.135Z,10.50
2022-11-23T18:53:04.036Z,10.60
2022-11-23T18:55:31.093Z,10.50
2022-11-23T18:57:58.414Z,10.50
2022-11-23T19:00:26.004Z,10.40
2022-11-23T19:02:58.865Z,10.50
2022-11-23T19:05:27.783Z,10.50
2022-11-23T19:07:57.534Z,10.60
2022-11-23T19:10:24.838Z,10.60
2022-11-23T19:12:52.381Z,10.60
2022-11-23T19:15:19.607Z,10.60
2022-11-23T19:17:47.909Z,10.60
2022-11-23T19:20:17.046Z,10.60
2022-11-23T19:22:44.250Z,10.60
2022-11-23T19:25:11.191Z,10.30
2022-11-23T19:27:38.193Z,10.40
2022-11-23T19:30:09.058Z,10.50
2022-11-23T19:32:36.934Z,10.60
2022-11-23T19:35:04.558Z,10.50
2022-11-23T19:37:31.695Z,10.40
2022-11-23T19:39:59.224Z,10.50
2022-11-23T19:42:26.584Z,10.40
2022-11-23T19:44:53.758Z,10.40
2022-11-23T19:47:22.923Z,10.50
2022-11-23T19:49:50.023Z,10.20
2022-11-23T19:52:17.005Z,10.40
2022-11-23T19:54:43.916Z,10.40
2022-11-23T19:57:11.076Z,10.30
2022-11-23T19:59:38.182Z,10.40
2022-11-23T20:02:05.242Z,10.40
2022-11-23T20:04:32.288Z,10.30
2022-11-23T20:06:59.356Z,10.20
2022-11-23T20:09:27.749Z,10.40
2022-11-23T20:11:54.708Z,10.30
2022-11-23T20:14:21.731Z,10.20
2022-11-23T20:16:49.011Z,10.20
2022-11-23T20:19:15.953Z,10.30
2022-11-23T20:21:43.098Z,10.20
2022-11-23T20:24:13.020Z,10.20
2022-11-23T20:26:41.463Z,10.30
2022-11-23T20:29:20.460Z,10.40
2022-11-23T20:31:47.476Z,10.40
2022-11-23T20:34:20.442Z,10.50
2022-11-23T20:36:48.949Z,10.40
2022-11-23T20:39:16.640Z,10.40
2022-11-23T20:41:53.394Z,10.60
2022-11-23T20:44:21.075Z,10.60
2022-11-23T20:47:06.116Z,10.60
2022-11-23T20:49:33.947Z,10.60
2022-11-23T20:52:02.240Z,10.60
2022-11-23T20:54:37.355Z,10.60
2022-11-23T20:57:04.672Z,10.70
2022-11-23T20:59:33.029Z,10.70
2022-11-23T21:02:00.182Z,10.60
2022-11-23T21:04:27.171Z,10.70
2022-11-23T21:06:54.755Z,10.70
2022-11-23T21:09:22.133Z,10.80
2022-11-23T21:12:07.675Z,10.70
2022-11-23T21:14:35.440Z,10.50
2022-11-23T21:17:05.926Z,10.60
2022-11-23T21:19:39.281Z,10.70
2022-11-23T21:22:08.455Z,10.70
2022-11-23T21:24:36.022Z,10.70
2022-11-23T21:27:04.742Z,10.70
2022-11-23T21:29:32.507Z,10.70
2022-11-23T21:32:01.699Z,10.70
2022-11-23T21:34:29.790Z,10.70
2022-11-23T21:36:58.134Z,10.60
2022-11-23T21:39:25.563Z,10.60
2022-11-23T21:41:54.204Z,10.70
2022-11-23T21:44:22.844Z,10.70
2022-11-23T21:46:50.206Z,10.70
2022-11-23T21:49:17.647Z,10.70
2022-11-23T21:51:45.857Z,10.70
2022-11-23T21:54:16.488Z,10.60
2022-11-23T21:56:45.475Z,10.50
2022-11-23T21:59:12.580Z,10.40
2022-11-23T22:01:39.913Z,10.40
2022-11-23T22:04:10.795Z,10.50
2022-11-23T22:06:38.615Z,10.50
2022-11-23T22:09:08.087Z,10.60
2022-11-23T22:11:36.817Z,10.50
2022-11-23T22:14:15.243Z,10.40
2022-11-23T22:16:47.112Z,10.50
2022-11-23T22:19:15.644Z,10.50
2022-11-23T22:21:44.225Z,10.60
2022-11-23T22:24:13.764Z,10.60
2022-11-23T22:26:41.082Z,10.60
2022-11-23T22:29:08.483Z,10.60
2022-11-23T22:31:36.327Z,10.70
2022-11-23T22:34:06.092Z,10.70
2022-11-23T22:36:33.323Z,10.80
2022-11-23T22:39:02.888Z,10.60
2022-11-23T22:41:36.833Z,10.70
2022-11-23T22:44:06.955Z,10.60
2022-11-23T22:46:34.635Z,10.50
2022-11-23T22:49:02.035Z,10.50
2022-11-23T22:51:29.805Z,10.40
2022-11-23T22:53:58.735Z,10.60
2022-11-23T22:56:26.653Z,10.60
2022-11-23T22:58:54.064Z,10.60
2022-11-23T23:01:23.952Z,10.60
2022-11-23T23:03:56.300Z,10.50
2022-11-23T23:06:25.379Z,10.60
2022-11-23T23:09:00.678Z,10.50
2022-11-23T23:11:29.975Z,10.60
2022-11-23T23:13:57.147Z,10.50
2022-11-23T23:16:24.876Z,10.60
2022-11-23T23:18:54.065Z,10.60
2022-11-23T23:21:22.577Z,10.50
2022-11-23T23:23:51.419Z,10.60
2022-11-23T23:26:20.754Z,10.60
2022-11-23T23:28:48.197Z,10.50
2022-11-23T23:31:17.067Z,10.60
2022-11-23T23:33:45.542Z,10.50
2022-11-23T23:36:17.891Z,10.50
2022-11-23T23:38:44.954Z,10.50
2022-11-23T23:41:14.153Z,10.60
2022-11-23T23:43:41.972Z,10.50
2022-11-23T23:46:12.122Z,10.50
2022-11-23T23:48:40.371Z,10.40
2022-11-23T23:51:18.723Z,10.40
2022-11-23T23:53:47.156Z,10.50
2022-11-23T23:56:18.532Z,10.50
2022-11-23T23:58:45.791Z,10.50
